Ontario, CA

9:18 PM PST on March 03, 2015 (GMT -0800)
Chino, california | Change Station
CLOSE
Current Station
Personal Weather Station
Location: Chino, CA
Elevation: 750 ft
Nearby Weather Stations

Elev 750 ft 34.02 °N, 117.68 °W | Updated 2 minutes ago

Clear
Clear
49.7 °F
Feels Like 50 °F
N
0.0
Wind Variable Wind from ESE
Gusts 0.0 mph

Today
High -- | Low -- °F
--% Chance of Precip.
Yesterday
High -- | Low -- °F
Precip. -- in
6:17 AM 5:48 PM
Waxing Gibbous, 98% visible
Pressure 29.95 in
Visibility 10.0 miles
Clouds Clear
Windchill 50 °F
Dew Point 43 °F
Humidity 78%
Rainfall 0.02 in
Snow Depth Not available.
UV 0 out of 12
Pollen 8.60 out of 12
Air Quality Not available.
Flu Activity Not available.
METAR KCNO 040453Z 00000KT 10SM CLR 11/06 A2995 RMK AO2 RAB09E19 SLP141 P0000 T01110056

More Conditions Fewer Conditions

Pressure 29.95 in
Visibility 10.0 miles
Clouds Clear
Windchill 50 °F
Dew Point 43 °F
Humidity 78%
Rainfall 0.02 in
Snow Depth Not available.
UV 0 out of 12
Pollen 8.60 out of 12
Air Quality Not available.
Flu Activity Not available.
METAR KCNO 040453Z 00000KT 10SM CLR 11/06 A2995 RMK AO2 RAB09E19 SLP141 P0000 T01110056

More Conditions Fewer Conditions

10-Day Weather Forecast

Almanac

Astronomy

Mar. 03, 2015 Rise Set
Actual Time
Civil Twilight
Nautical Twilight
Astronomical Twilight
Moon
Length of Visible Light
Length of Day
Tomorrow will be .
, % of the Moon is Illuminated

Today's Extremes

State Highs State Lows

Community

WunderPhotos

Upload Photos

1,802,394 photos uploaded!

WunderBlogs® & News

Nearby

Air Quality

  Air Quality AQ Index Pollutant
Not available.

Snow Depth

Station Depth Elevation

Earthquake Activity

City Distance Mag. Time & Date
Minimum magnitude displayed is 2.5.

Coastal Water Temperatures

Place Temperature

Nearby Weather Stations